sensor_id;sensor_type;location;lat;lon;timestamp;temperature;humidity
11497;DHT22;5805;51.542;7.230;2023-01-10T00:00:12;9.30;99.90
11497;DHT22;5805;51.542;7.230;2023-01-10T00:02:37;9.20;99.90
11497;DHT22;5805;51.542;7.230;2023-01-10T00:05:04;9.20;99.90
11497;DHT22;5805;51.542;7.230;2023-01-10T00:07:31;9.30;99.90
11497;DHT22;5805;51.542;7.230;2023-01-10T00:09:57;9.30;99.90
11497;DHT22;5805;51.542;7.230;2023-01-10T00:12:23;9.30;99.90
11497;DHT22;5805;51.542;7.230;2023-01-10T00:14:48;9.40;99.90
11497;DHT22;5805;51.542;7.230;2023-01-10T00:17:14;9.30;99.90
11497;DHT22;5805;51.542;7.230;2023-01-10T00:19:40;9.30;99.90
11497;DHT22;5805;51.542;7.230;2023-01-10T00:22:05;9.30;99.90
11497;DHT22;5805;51.542;7.230;2023-01-10T00:24:34;9.30;99.90
11497;DHT22;5805;51.542;7.230;2023-01-10T00:26:59;9.30;99.90
11497;DHT22;5805;51.542;7.230;2023-01-10T00:29:27;9.30;99.90
11497;DHT22;5805;51.542;7.230;2023-01-10T00:31:53;9.30;99.90
11497;DHT22;5805;51.542;7.230;2023-01-10T00:34:19;9.30;99.90
11497;DHT22;5805;51.542;7.230;2023-01-10T00:36:45;9.30;99.90
11497;DHT22;5805;51.542;7.230;2023-01-10T00:39:11;9.30;99.90
11497;DHT22;5805;51.542;7.230;2023-01-10T00:41:39;9.30;99.90
11497;DHT22;5805;51.542;7.230;2023-01-10T00:44:05;9.30;99.90
11497;DHT22;5805;51.542;7.230;2023-01-10T00:46:31;9.30;99.90
11497;DHT22;5805;51.542;7.230;2023-01-10T00:48:56;9.30;99.90
11497;DHT22;5805;51.542;7.230;2023-01-10T00:51:22;9.30;99.90
11497;DHT22;5805;51.542;7.230;2023-01-10T00:53:48;9.30;99.90
11497;DHT22;5805;51.542;7.230;2023-01-10T00:56:13;9.30;99.90
11497;DHT22;5805;51.542;7.230;2023-01-10T00:58:40;9.30;99.90
11497;DHT22;5805;51.542;7.230;2023-01-10T01:01:06;9.30;99.90
11497;DHT22;5805;51.542;7.230;2023-01-10T01:03:32;9.20;99.90
11497;DHT22;5805;51.542;7.230;2023-01-10T01:06:03;9.20;99.90
11497;DHT22;5805;51.542;7.230;2023-01-10T01:08:29;9.20;99.90
11497;DHT22;5805;51.542;7.230;2023-01-10T01:10:54;9.10;99.90
11497;DHT22;5805;51.542;7.230;2023-01-10T01:13:21;9.10;99.90
11497;DHT22;5805;51.542;7.230;2023-01-10T01:15:48;9.10;99.90
11497;DHT22;5805;51.542;7.230;2023-01-10T01:18:17;9.10;99.90
11497;DHT22;5805;51.542;7.230;2023-01-10T01:20:43;9.10;99.90
11497;DHT22;5805;51.542;7.230;2023-01-10T01:23:09;9.10;99.90
11497;DHT22;5805;51.542;7.230;2023-01-10T01:25:35;9.10;99.90
11497;DHT22;5805;51.542;7.230;2023-01-10T01:28:00;9.10;99.90
11497;DHT22;5805;51.542;7.230;2023-01-10T01:30:26;9.10;99.90
11497;DHT22;5805;51.542;7.230;2023-01-10T01:32:53;9.10;99.90
11497;DHT22;5805;51.542;7.230;2023-01-10T01:35:19;9.10;99.90
11497;DHT22;5805;51.542;7.230;2023-01-10T01:37:45;9.00;99.90
11497;DHT22;5805;51.542;7.230;2023-01-10T01:40:12;9.00;99.90
11497;DHT22;5805;51.542;7.230;2023-01-10T01:42:38;9.00;99.90
11497;DHT22;5805;51.542;7.230;2023-01-10T01:45:34;9.00;99.90
11497;DHT22;5805;51.542;7.230;2023-01-10T01:48:08;9.00;99.90
11497;DHT22;5805;51.542;7.230;2023-01-10T01:50:42;9.00;99.90
11497;DHT22;5805;51.542;7.230;2023-01-10T01:53:12;9.00;99.90
11497;DHT22;5805;51.542;7.230;2023-01-10T01:55:39;9.00;99.90
11497;DHT22;5805;51.542;7.230;2023-01-10T01:58:11;9.00;99.90
11497;DHT22;5805;51.542;7.230;2023-01-10T02:00:37;9.10;99.90
11497;DHT22;5805;51.542;7.230;2023-01-10T02:03:04;9.10;99.90
11497;DHT22;5805;51.542;7.230;2023-01-10T02:05:31;9.10;99.90
11497;DHT22;5805;51.542;7.230;2023-01-10T02:07:59;9.10;99.90
11497;DHT22;5805;51.542;7.230;2023-01-10T02:10:29;9.00;99.90
11497;DHT22;5805;51.542;7.230;2023-01-10T02:13:01;9.00;99.90
11497;DHT22;5805;51.542;7.230;2023-01-10T02:15:28;9.10;99.90
11497;DHT22;5805;51.542;7.230;2023-01-10T02:17:54;9.10;99.90
11497;DHT22;5805;51.542;7.230;2023-01-10T02:20:23;9.10;99.90
11497;DHT22;5805;51.542;7.230;2023-01-10T02:23:10;9.00;99.90
11497;DHT22;5805;51.542;7.230;2023-01-10T02:28:57;9.00;99.90
11497;DHT22;5805;51.542;7.230;2023-01-10T02:31:38;9.00;99.90
11497;DHT22;5805;51.542;7.230;2023-01-10T02:34:12;9.00;99.90
11497;DHT22;5805;51.542;7.230;2023-01-10T02:36:49;9.00;99.90
11497;DHT22;5805;51.542;7.230;2023-01-10T02:39:25;9.00;99.90
11497;DHT22;5805;51.542;7.230;2023-01-10T02:41:58;8.90;99.90
11497;DHT22;5805;51.542;7.230;2023-01-10T02:44:30;8.80;99.90
11497;DHT22;5805;51.542;7.230;2023-01-10T02:47:02;8.80;99.90
11497;DHT22;5805;51.542;7.230;2023-01-10T02:49:29;8.70;99.90
11497;DHT22;5805;51.542;7.230;2023-01-10T02:51:55;8.70;99.90
11497;DHT22;5805;51.542;7.230;2023-01-10T02:54:24;8.70;99.90
11497;DHT22;5805;51.542;7.230;2023-01-10T02:57:13;8.60;99.90
11497;DHT22;5805;51.542;7.230;2023-01-10T02:59:54;8.60;99.90
11497;DHT22;5805;51.542;7.230;2023-01-10T03:02:36;8.50;99.90
11497;DHT22;5805;51.542;7.230;2023-01-10T03:05:14;8.50;99.90
11497;DHT22;5805;51.542;7.230;2023-01-10T03:07:49;8.60;99.90
11497;DHT22;5805;51.542;7.230;2023-01-10T03:10:22;8.60;99.90
11497;DHT22;5805;51.542;7.230;2023-01-10T03:12:55;8.70;99.90
11497;DHT22;5805;51.542;7.230;2023-01-10T03:15:25;8.70;99.90
11497;DHT22;5805;51.542;7.230;2023-01-10T03:17:57;8.70;99.90
11497;DHT22;5805;51.542;7.230;2023-01-10T03:20:26;8.80;99.90
11497;DHT22;5805;51.542;7.230;2023-01-10T03:22:54;8.80;99.90
11497;DHT22;5805;51.542;7.230;2023-01-10T03:25:23;8.70;99.90
11497;DHT22;5805;51.542;7.230;2023-01-10T03:27:56;8.80;99.90
11497;DHT22;5805;51.542;7.230;2023-01-10T03:30:28;8.80;99.90
11497;DHT22;5805;51.542;7.230;2023-01-10T03:32:57;8.90;99.90
11497;DHT22;5805;51.542;7.230;2023-01-10T03:35:31;8.90;99.90
11497;DHT22;5805;51.542;7.230;2023-01-10T03:38:04;8.90;99.90
11497;DHT22;5805;51.542;7.230;2023-01-10T03:40:34;8.90;99.90
11497;DHT22;5805;51.542;7.230;2023-01-10T03:43:02;8.90;99.90
11497;DHT22;5805;51.542;7.230;2023-01-10T03:45:34;8.90;99.90
11497;DHT22;5805;51.542;7.230;2023-01-10T03:48:04;8.90;99.90
11497;DHT22;5805;51.542;7.230;2023-01-10T03:50:32;8.90;99.90
11497;DHT22;5805;51.542;7.230;2023-01-10T03:52:58;8.90;99.90
11497;DHT22;5805;51.542;7.230;2023-01-10T03:55:26;8.90;99.90
11497;DHT22;5805;51.542;7.230;2023-01-10T03:57:53;8.80;99.90
11497;DHT22;5805;51.542;7.230;2023-01-10T04:00:19;8.80;99.90
11497;DHT22;5805;51.542;7.230;2023-01-10T04:02:44;8.70;99.90
11497;DHT22;5805;51.542;7.230;2023-01-10T04:05:10;8.60;99.90
11497;DHT22;5805;51.542;7.230;2023-01-10T04:07:38;8.60;99.90
11497;DHT22;5805;51.542;7.230;2023-01-10T04:10:05;8.60;99.90
11497;DHT22;5805;51.542;7.230;2023-01-10T04:12:30;8.50;99.90
11497;DHT22;5805;51.542;7.230;2023-01-10T04:14:56;8.50;99.90
11497;DHT22;5805;51.542;7.230;2023-01-10T04:17:22;8.50;99.90
11497;DHT22;5805;51.542;7.230;2023-01-10T04:19:47;8.40;99.90
11497;DHT22;5805;51.542;7.230;2023-01-10T04:22:13;8.40;99.90
11497;DHT22;5805;51.542;7.230;2023-01-10T04:24:40;8.30;99.90
11497;DHT22;5805;51.542;7.230;2023-01-10T04:27:06;8.30;99.90
11497;DHT22;5805;51.542;7.230;2023-01-10T04:29:32;8.20;99.90
11497;DHT22;5805;51.542;7.230;2023-01-10T04:31:57;8.20;99.90
11497;DHT22;5805;51.542;7.230;2023-01-10T04:34:23;8.20;99.90
11497;DHT22;5805;51.542;7.230;2023-01-10T04:36:49;8.20;99.90
11497;DHT22;5805;51.542;7.230;2023-01-10T04:39:15;8.10;99.90
11497;DHT22;5805;51.542;7.230;2023-01-10T04:41:42;8.10;99.90
11497;DHT22;5805;51.542;7.230;2023-01-10T04:44:08;8.10;99.90
11497;DHT22;5805;51.542;7.230;2023-01-10T04:46:33;8.10;99.90
11497;DHT22;5805;51.542;7.230;2023-01-10T04:48:59;8.20;99.90
11497;DHT22;5805;51.542;7.230;2023-01-10T04:51:26;8.20;99.90
11497;DHT22;5805;51.542;7.230;2023-01-10T04:53:52;8.20;99.90
11497;DHT22;5805;51.542;7.230;2023-01-10T04:56:19;8.20;99.90
11497;DHT22;5805;51.542;7.230;2023-01-10T04:58:48;8.30;99.90
11497;DHT22;5805;51.542;7.230;2023-01-10T05:01:16;8.30;99.90
11497;DHT22;5805;51.542;7.230;2023-01-10T05:03:42;8.30;99.90
11497;DHT22;5805;51.542;7.230;2023-01-10T05:06:08;8.30;99.90
11497;DHT22;5805;51.542;7.230;2023-01-10T05:08:33;8.40;99.90
11497;DHT22;5805;51.542;7.230;2023-01-10T05:10:59;8.40;99.90
11497;DHT22;5805;51.542;7.230;2023-01-10T05:13:25;8.30;99.90
11497;DHT22;5805;51.542;7.230;2023-01-10T05:15:54;8.30;99.90
11497;DHT22;5805;51.542;7.230;2023-01-10T05:18:20;8.20;99.90
11497;DHT22;5805;51.542;7.230;2023-01-10T05:20:45;8.10;99.90
11497;DHT22;5805;51.542;7.230;2023-01-10T05:23:11;8.10;99.90
11497;DHT22;5805;51.542;7.230;2023-01-10T05:25:37;8.00;99.90
11497;DHT22;5805;51.542;7.230;2023-01-10T05:28:03;8.00;99.90
11497;DHT22;5805;51.542;7.230;2023-01-10T05:30:28;8.00;99.90
11497;DHT22;5805;51.542;7.230;2023-01-10T05:32:56;8.00;99.90
11497;DHT22;5805;51.542;7.230;2023-01-10T05:35:23;8.30;99.90
11497;DHT22;5805;51.542;7.230;2023-01-10T05:37:48;7.90;99.90
11497;DHT22;5805;51.542;7.230;2023-01-10T05:40:14;7.90;99.90
11497;DHT22;5805;51.542;7.230;2023-01-10T05:42:40;7.80;99.90
11497;DHT22;5805;51.542;7.230;2023-01-10T05:45:07;7.80;99.90
11497;DHT22;5805;51.542;7.230;2023-01-10T05:47:33;7.80;99.90
11497;DHT22;5805;51.542;7.230;2023-01-10T05:50:00;7.80;99.90
11497;DHT22;5805;51.542;7.230;2023-01-10T05:52:26;7.70;99.90
11497;DHT22;5805;51.542;7.230;2023-01-10T05:54:51;7.70;99.90
11497;DHT22;5805;51.542;7.230;2023-01-10T05:57:17;7.70;99.90
11497;DHT22;5805;51.542;7.230;2023-01-10T05:59:43;7.70;99.90
11497;DHT22;5805;51.542;7.230;2023-01-10T06:02:08;7.70;99.90
11497;DHT22;5805;51.542;7.230;2023-01-10T06:04:34;7.70;99.90
11497;DHT22;5805;51.542;7.230;2023-01-10T06:07:01;7.60;99.90
11497;DHT22;5805;51.542;7.230;2023-01-10T06:09:27;7.60;99.90
11497;DHT22;5805;51.542;7.230;2023-01-10T06:11:53;7.60;99.90
11497;DHT22;5805;51.542;7.230;2023-01-10T06:14:18;7.60;99.90
11497;DHT22;5805;51.542;7.230;2023-01-10T06:16:44;7.60;99.90
11497;DHT22;5805;51.542;7.230;2023-01-10T06:19:10;7.60;99.90
11497;DHT22;5805;51.542;7.230;2023-01-10T06:21:36;7.60;99.90
11497;DHT22;5805;51.542;7.230;2023-01-10T06:24:03;7.60;99.90
11497;DHT22;5805;51.542;7.230;2023-01-10T06:26:29;7.60;99.90
11497;DHT22;5805;51.542;7.230;2023-01-10T06:28:55;7.60;99.90
11497;DHT22;5805;51.542;7.230;2023-01-10T06:31:20;7.60;99.90
11497;DHT22;5805;51.542;7.230;2023-01-10T06:33:49;7.50;99.90
11497;DHT22;5805;51.542;7.230;2023-01-10T06:36:14;7.50;99.90
11497;DHT22;5805;51.542;7.230;2023-01-10T06:38:40;7.60;99.90
11497;DHT22;5805;51.542;7.230;2023-01-10T06:41:07;7.70;99.90
11497;DHT22;5805;51.542;7.230;2023-01-10T06:43:33;7.70;99.90
11497;DHT22;5805;51.542;7.230;2023-01-10T06:45:59;7.80;99.90
11497;DHT22;5805;51.542;7.230;2023-01-10T06:48:24;7.90;99.90
11497;DHT22;5805;51.542;7.230;2023-01-10T06:50:50;7.90;99.90
11497;DHT22;5805;51.542;7.230;2023-01-10T06:53:16;8.00;99.90
11497;DHT22;5805;51.542;7.230;2023-01-10T06:55:41;8.00;99.90
11497;DHT22;5805;51.542;7.230;2023-01-10T06:58:08;8.00;99.90
11497;DHT22;5805;51.542;7.230;2023-01-10T07:00:34;8.00;99.90
11497;DHT22;5805;51.542;7.230;2023-01-10T07:03:00;8.00;99.90
11497;DHT22;5805;51.542;7.230;2023-01-10T07:05:26;8.00;99.90
11497;DHT22;5805;51.542;7.230;2023-01-10T07:07:52;8.00;99.90
11497;DHT22;5805;51.542;7.230;2023-01-10T07:10:18;8.00;99.90
11497;DHT22;5805;51.542;7.230;2023-01-10T07:12:44;8.00;99.90
11497;DHT22;5805;51.542;7.230;2023-01-10T07:15:11;8.00;99.90
11497;DHT22;5805;51.542;7.230;2023-01-10T07:17:36;8.10;99.90
11497;DHT22;5805;51.542;7.230;2023-01-10T07:20:02;8.10;99.90
11497;DHT22;5805;51.542;7.230;2023-01-10T07:22:28;8.10;99.90
11497;DHT22;5805;51.542;7.230;2023-01-10T07:24:54;8.10;99.90
11497;DHT22;5805;51.542;7.230;2023-01-10T07:27:19;8.10;99.90
11497;DHT22;5805;51.542;7.230;2023-01-10T07:29:45;8.20;99.90
11497;DHT22;5805;51.542;7.230;2023-01-10T07:32:12;8.20;99.90
11497;DHT22;5805;51.542;7.230;2023-01-10T07:34:38;8.20;99.90
11497;DHT22;5805;51.542;7.230;2023-01-10T07:37:04;8.30;99.90
11497;DHT22;5805;51.542;7.230;2023-01-10T07:39:29;8.40;99.90
11497;DHT22;5805;51.542;7.230;2023-01-10T07:41:55;8.40;99.90
11497;DHT22;5805;51.542;7.230;2023-01-10T07:44:20;8.50;99.90
11497;DHT22;5805;51.542;7.230;2023-01-10T07:46:46;8.50;99.90
11497;DHT22;5805;51.542;7.230;2023-01-10T07:49:13;8.50;99.90
11497;DHT22;5805;51.542;7.230;2023-01-10T07:51:39;8.50;99.90
11497;DHT22;5805;51.542;7.230;2023-01-10T07:54:05;8.50;99.90
11497;DHT22;5805;51.542;7.230;2023-01-10T07:56:30;8.50;99.90
11497;DHT22;5805;51.542;7.230;2023-01-10T07:58:56;8.50;99.90
11497;DHT22;5805;51.542;7.230;2023-01-10T08:01:22;8.50;99.90
11497;DHT22;5805;51.542;7.230;2023-01-10T08:03:48;8.50;99.90
11497;DHT22;5805;51.542;7.230;2023-01-10T08:06:15;8.50;99.90
11497;DHT22;5805;51.542;7.230;2023-01-10T08:08:40;8.50;99.90
11497;DHT22;5805;51.542;7.230;2023-01-10T08:11:06;8.50;99.90
11497;DHT22;5805;51.542;7.230;2023-01-10T08:13:33;8.60;99.90
11497;DHT22;5805;51.542;7.230;2023-01-10T08:16:03;8.60;99.90
11497;DHT22;5805;51.542;7.230;2023-01-10T08:18:29;8.60;99.90
11497;DHT22;5805;51.542;7.230;2023-01-10T08:20:55;8.70;99.90
11497;DHT22;5805;51.542;7.230;2023-01-10T08:23:22;8.80;99.90
11497;DHT22;5805;51.542;7.230;2023-01-10T08:25:48;8.80;99.90
11497;DHT22;5805;51.542;7.230;2023-01-10T08:28:14;8.80;99.90
11497;DHT22;5805;51.542;7.230;2023-01-10T08:30:40;8.80;99.90
11497;DHT22;5805;51.542;7.230;2023-01-10T08:33:07;8.90;99.90
11497;DHT22;5805;51.542;7.230;2023-01-10T08:35:36;8.90;99.90
11497;DHT22;5805;51.542;7.230;2023-01-10T08:38:02;8.80;99.90
11497;DHT22;5805;51.542;7.230;2023-01-10T08:40:29;8.90;99.90
11497;DHT22;5805;51.542;7.230;2023-01-10T08:42:57;8.90;99.90
11497;DHT22;5805;51.542;7.230;2023-01-10T08:45:22;8.90;99.90
11497;DHT22;5805;51.542;7.230;2023-01-10T08:47:48;9.00;99.90
11497;DHT22;5805;51.542;7.230;2023-01-10T08:50:14;9.00;99.90
11497;DHT22;5805;51.542;7.230;2023-01-10T08:52:40;9.00;99.90
11497;DHT22;5805;51.542;7.230;2023-01-10T08:55:06;9.00;99.90
11497;DHT22;5805;51.542;7.230;2023-01-10T08:57:33;9.00;99.90
11497;DHT22;5805;51.542;7.230;2023-01-10T08:59:59;9.10;99.90
11497;DHT22;5805;51.542;7.230;2023-01-10T09:02:24;9.10;99.90
11497;DHT22;5805;51.542;7.230;2023-01-10T09:04:50;9.20;99.90
11497;DHT22;5805;51.542;7.230;2023-01-10T09:07:16;9.20;99.90
11497;DHT22;5805;51.542;7.230;2023-01-10T09:09:41;9.20;99.90
11497;DHT22;5805;51.542;7.230;2023-01-10T09:12:07;9.30;99.90
11497;DHT22;5805;51.542;7.230;2023-01-10T09:14:34;9.30;99.90
11497;DHT22;5805;51.542;7.230;2023-01-10T09:17:00;9.30;99.90
11497;DHT22;5805;51.542;7.230;2023-01-10T09:19:26;9.30;99.90
11497;DHT22;5805;51.542;7.230;2023-01-10T09:21:51;9.20;99.90
11497;DHT22;5805;51.542;7.230;2023-01-10T09:24:17;9.20;99.90
11497;DHT22;5805;51.542;7.230;2023-01-10T09:26:43;9.20;99.90
11497;DHT22;5805;51.542;7.230;2023-01-10T09:29:08;9.20;99.90
11497;DHT22;5805;51.542;7.230;2023-01-10T09:31:35;9.20;99.90
11497;DHT22;5805;51.542;7.230;2023-01-10T09:34:01;9.20;99.90
11497;DHT22;5805;51.542;7.230;2023-01-10T09:36:27;9.20;99.90
11497;DHT22;5805;51.542;7.230;2023-01-10T09:38:52;9.30;99.90
11497;DHT22;5805;51.542;7.230;2023-01-10T09:41:40;9.30;99.90
11497;DHT22;5805;51.542;7.230;2023-01-10T09:44:19;9.20;99.90
11497;DHT22;5805;51.542;7.230;2023-01-10T09:46:52;9.30;99.90
11497;DHT22;5805;51.542;7.230;2023-01-10T09:49:27;9.30;99.90
11497;DHT22;5805;51.542;7.230;2023-01-10T09:51:57;9.30;99.90
11497;DHT22;5805;51.542;7.230;2023-01-10T09:54:27;9.30;99.90
11497;DHT22;5805;51.542;7.230;2023-01-10T09:56:54;9.30;99.90
11497;DHT22;5805;51.542;7.230;2023-01-10T09:59:22;9.30;99.90
11497;DHT22;5805;51.542;7.230;2023-01-10T10:01:53;9.40;99.90
11497;DHT22;5805;51.542;7.230;2023-01-10T10:04:26;9.40;99.90
11497;DHT22;5805;51.542;7.230;2023-01-10T10:06:54;9.50;99.90
11497;DHT22;5805;51.542;7.230;2023-01-10T10:09:22;9.60;99.90
11497;DHT22;5805;51.542;7.230;2023-01-10T10:15:17;9.90;99.90
11497;DHT22;5805;51.542;7.230;2023-01-10T10:17:54;10.00;99.90
11497;DHT22;5805;51.542;7.230;2023-01-10T10:20:46;10.00;99.90
11497;DHT22;5805;51.542;7.230;2023-01-10T10:23:24;10.00;99.90
11497;DHT22;5805;51.542;7.230;2023-01-10T10:26:01;10.00;99.90
11497;DHT22;5805;51.542;7.230;2023-01-10T10:31:59;10.10;99.90
11497;DHT22;5805;51.542;7.230;2023-01-10T10:34:33;10.10;99.90
11497;DHT22;5805;51.542;7.230;2023-01-10T10:37:02;10.20;99.90
11497;DHT22;5805;51.542;7.230;2023-01-10T10:39:33;10.20;99.90
11497;DHT22;5805;51.542;7.230;2023-01-10T10:42:00;10.30;99.90
11497;DHT22;5805;51.542;7.230;2023-01-10T10:44:33;10.30;99.90
11497;DHT22;5805;51.542;7.230;2023-01-10T10:47:01;10.40;99.90
11497;DHT22;5805;51.542;7.230;2023-01-10T10:49:35;10.40;99.90
11497;DHT22;5805;51.542;7.230;2023-01-10T10:52:03;10.30;99.90
11497;DHT22;5805;51.542;7.230;2023-01-10T10:54:34;10.30;99.90
11497;DHT22;5805;51.542;7.230;2023-01-10T10:57:00;10.50;99.90
11497;DHT22;5805;51.542;7.230;2023-01-10T10:59:26;10.60;99.90
11497;DHT22;5805;51.542;7.230;2023-01-10T11:01:52;10.80;99.90
11497;DHT22;5805;51.542;7.230;2023-01-10T11:04:21;10.80;99.90
11497;DHT22;5805;51.542;7.230;2023-01-10T11:06:48;10.80;99.90
11497;DHT22;5805;51.542;7.230;2023-01-10T11:09:16;10.80;99.90
11497;DHT22;5805;51.542;7.230;2023-01-10T11:11:44;10.80;99.90
11497;DHT22;5805;51.542;7.230;2023-01-10T11:14:11;10.80;99.90
11497;DHT22;5805;51.542;7.230;2023-01-10T11:16:39;10.80;99.90
11497;DHT22;5805;51.542;7.230;2023-01-10T11:19:09;10.80;99.90
11497;DHT22;5805;51.542;7.230;2023-01-10T11:21:38;10.80;99.90
11497;DHT22;5805;51.542;7.230;2023-01-10T11:24:19;10.80;99.90
11497;DHT22;5805;51.542;7.230;2023-01-10T11:26:45;10.90;99.90
11497;DHT22;5805;51.542;7.230;2023-01-10T11:29:15;11.00;99.90
11497;DHT22;5805;51.542;7.230;2023-01-10T11:31:42;11.00;99.90
11497;DHT22;5805;51.542;7.230;2023-01-10T11:34:19;11.00;99.90
11497;DHT22;5805;51.542;7.230;2023-01-10T11:36:58;10.90;99.90
11497;DHT22;5805;51.542;7.230;2023-01-10T11:39:27;10.90;99.90
11497;DHT22;5805;51.542;7.230;2023-01-10T11:41:53;10.90;99.90
11497;DHT22;5805;51.542;7.230;2023-01-10T11:44:23;10.80;99.90
11497;DHT22;5805;51.542;7.230;2023-01-10T11:46:53;10.80;99.90
11497;DHT22;5805;51.542;7.230;2023-01-10T11:49:28;10.80;99.90
11497;DHT22;5805;51.542;7.230;2023-01-10T11:51:58;10.80;99.90
11497;DHT22;5805;51.542;7.230;2023-01-10T11:54:27;10.90;99.90
11497;DHT22;5805;51.542;7.230;2023-01-10T11:56:55;10.90;99.90
11497;DHT22;5805;51.542;7.230;2023-01-10T11:59:22;10.90;99.90
11497;DHT22;5805;51.542;7.230;2023-01-10T12:01:54;11.10;99.90
11497;DHT22;5805;51.542;7.230;2023-01-10T12:04:20;11.00;99.90
11497;DHT22;5805;51.542;7.230;2023-01-10T12:06:49;11.10;99.90
11497;DHT22;5805;51.542;7.230;2023-01-10T12:09:37;11.00;99.90
11497;DHT22;5805;51.542;7.230;2023-01-10T12:12:05;10.90;99.90
11497;DHT22;5805;51.542;7.230;2023-01-10T12:14:31;11.00;99.90
11497;DHT22;5805;51.542;7.230;2023-01-10T12:17:03;11.00;99.90
11497;DHT22;5805;51.542;7.230;2023-01-10T12:19:28;11.30;99.90
11497;DHT22;5805;51.542;7.230;2023-01-10T12:21:57;11.00;99.90
11497;DHT22;5805;51.542;7.230;2023-01-10T12:24:26;11.00;99.90
11497;DHT22;5805;51.542;7.230;2023-01-10T12:26:54;11.00;99.90
11497;DHT22;5805;51.542;7.230;2023-01-10T12:29:23;10.90;99.90
11497;DHT22;5805;51.542;7.230;2023-01-10T12:31:52;10.90;99.90
11497;DHT22;5805;51.542;7.230;2023-01-10T12:34:21;11.00;99.90
11497;DHT22;5805;51.542;7.230;2023-01-10T12:36:57;11.00;99.90
11497;DHT22;5805;51.542;7.230;2023-01-10T12:39:27;11.00;99.90
11497;DHT22;5805;51.542;7.230;2023-01-10T12:42:03;11.00;99.90
11497;DHT22;5805;51.542;7.230;2023-01-10T12:44:35;11.30;99.90
11497;DHT22;5805;51.542;7.230;2023-01-10T12:47:08;10.90;99.90
11497;DHT22;5805;51.542;7.230;2023-01-10T12:49:37;10.90;99.90
11497;DHT22;5805;51.542;7.230;2023-01-10T12:52:13;10.90;99.90
11497;DHT22;5805;51.542;7.230;2023-01-10T12:54:41;10.80;99.90
11497;DHT22;5805;51.542;7.230;2023-01-10T12:57:24;10.90;99.90
11497;DHT22;5805;51.542;7.230;2023-01-10T12:59:50;10.90;99.90
11497;DHT22;5805;51.542;7.230;2023-01-10T13:02:21;10.90;99.90
11497;DHT22;5805;51.542;7.230;2023-01-10T13:04:51;10.90;99.90
11497;DHT22;5805;51.542;7.230;2023-01-10T13:07:18;10.90;99.90
11497;DHT22;5805;51.542;7.230;2023-01-10T13:09:45;10.90;99.90
11497;DHT22;5805;51.542;7.230;2023-01-10T13:12:16;10.90;99.90
11497;DHT22;5805;51.542;7.230;2023-01-10T13:14:45;10.90;99.90
11497;DHT22;5805;51.542;7.230;2023-01-10T13:17:21;10.90;99.90
11497;DHT22;5805;51.542;7.230;2023-01-10T13:20:17;10.90;99.90
11497;DHT22;5805;51.542;7.230;2023-01-10T13:22:44;10.90;99.90
11497;DHT22;5805;51.542;7.230;2023-01-10T13:25:18;11.00;99.90
11497;DHT22;5805;51.542;7.230;2023-01-10T13:27:54;10.90;99.90
11497;DHT22;5805;51.542;7.230;2023-01-10T13:30:25;10.90;99.90
11497;DHT22;5805;51.542;7.230;2023-01-10T13:32:57;10.90;99.90
11497;DHT22;5805;51.542;7.230;2023-01-10T13:35:23;11.00;99.90
11497;DHT22;5805;51.542;7.230;2023-01-10T13:37:51;11.00;99.90
11497;DHT22;5805;51.542;7.230;2023-01-10T13:40:20;11.00;99.90
11497;DHT22;5805;51.542;7.230;2023-01-10T13:43:24;10.90;99.90
11497;DHT22;5805;51.542;7.230;2023-01-10T13:46:35;10.90;99.90
11497;DHT22;5805;51.542;7.230;2023-01-10T13:49:37;11.00;99.90
11497;DHT22;5805;51.542;7.230;2023-01-10T13:52:36;11.00;99.90
11497;DHT22;5805;51.542;7.230;2023-01-10T13:58:03;11.00;99.90
11497;DHT22;5805;51.542;7.230;2023-01-10T14:00:54;11.00;99.90
11497;DHT22;5805;51.542;7.230;2023-01-10T14:06:31;11.00;99.90
11497;DHT22;5805;51.542;7.230;2023-01-10T14:09:00;11.00;99.90
11497;DHT22;5805;51.542;7.230;2023-01-10T14:11:29;10.90;99.90
11497;DHT22;5805;51.542;7.230;2023-01-10T14:14:00;10.90;99.90
11497;DHT22;5805;51.542;7.230;2023-01-10T14:16:34;10.90;99.90
11497;DHT22;5805;51.542;7.230;2023-01-10T14:19:01;10.80;99.90
11497;DHT22;5805;51.542;7.230;2023-01-10T14:21:29;10.80;99.90
11497;DHT22;5805;51.542;7.230;2023-01-10T14:23:56;10.80;99.90
11497;DHT22;5805;51.542;7.230;2023-01-10T14:26:28;10.80;99.90
11497;DHT22;5805;51.542;7.230;2023-01-10T14:28:55;10.80;99.90
11497;DHT22;5805;51.542;7.230;2023-01-10T14:31:23;10.70;99.90
11497;DHT22;5805;51.542;7.230;2023-01-10T14:33:50;11.20;99.90
11497;DHT22;5805;51.542;7.230;2023-01-10T14:36:18;10.70;99.90
11497;DHT22;5805;51.542;7.230;2023-01-10T14:38:47;10.70;99.90
11497;DHT22;5805;51.542;7.230;2023-01-10T14:41:17;10.60;99.90
11497;DHT22;5805;51.542;7.230;2023-01-10T14:43:48;10.60;99.90
11497;DHT22;5805;51.542;7.230;2023-01-10T14:46:21;10.60;99.90
11497;DHT22;5805;51.542;7.230;2023-01-10T14:48:50;10.60;99.90
11497;DHT22;5805;51.542;7.230;2023-01-10T14:51:18;10.50;99.90
11497;DHT22;5805;51.542;7.230;2023-01-10T14:53:44;10.50;99.90
11497;DHT22;5805;51.542;7.230;2023-01-10T14:56:21;10.50;99.90
11497;DHT22;5805;51.542;7.230;2023-01-10T14:58:47;10.50;99.90
11497;DHT22;5805;51.542;7.230;2023-01-10T15:01:20;10.40;99.90
11497;DHT22;5805;51.542;7.230;2023-01-10T15:03:48;10.40;99.90
11497;DHT22;5805;51.542;7.230;2023-01-10T15:06:14;10.40;99.90
11497;DHT22;5805;51.542;7.230;2023-01-10T15:08:40;10.40;99.90
11497;DHT22;5805;51.542;7.230;2023-01-10T15:11:09;10.30;99.90
11497;DHT22;5805;51.542;7.230;2023-01-10T15:13:49;10.30;99.90
11497;DHT22;5805;51.542;7.230;2023-01-10T15:16:18;10.40;99.90
11497;DHT22;5805;51.542;7.230;2023-01-10T15:18:45;10.40;99.90
11497;DHT22;5805;51.542;7.230;2023-01-10T15:21:14;10.30;99.90
11497;DHT22;5805;51.542;7.230;2023-01-10T15:23:42;10.30;99.90
11497;DHT22;5805;51.542;7.230;2023-01-10T15:26:10;10.20;99.90
11497;DHT22;5805;51.542;7.230;2023-01-10T15:28:37;10.20;99.90
11497;DHT22;5805;51.542;7.230;2023-01-10T15:31:04;10.30;99.90
11497;DHT22;5805;51.542;7.230;2023-01-10T15:33:31;10.30;99.90
11497;DHT22;5805;51.542;7.230;2023-01-10T15:36:02;10.20;99.90
11497;DHT22;5805;51.542;7.230;2023-01-10T15:38:30;10.20;99.90
11497;DHT22;5805;51.542;7.230;2023-01-10T15:40:58;10.20;99.90
11497;DHT22;5805;51.542;7.230;2023-01-10T15:43:26;10.20;99.90
11497;DHT22;5805;51.542;7.230;2023-01-10T15:45:52;10.20;99.90
11497;DHT22;5805;51.542;7.230;2023-01-10T15:48:27;10.20;99.90
11497;DHT22;5805;51.542;7.230;2023-01-10T15:50:55;10.10;99.90
11497;DHT22;5805;51.542;7.230;2023-01-10T15:56:35;10.00;99.90
11497;DHT22;5805;51.542;7.230;2023-01-10T15:59:03;10.00;99.90
11497;DHT22;5805;51.542;7.230;2023-01-10T16:01:30;10.00;99.90
11497;DHT22;5805;51.542;7.230;2023-01-10T16:03:57;10.00;99.90
11497;DHT22;5805;51.542;7.230;2023-01-10T16:06:25;9.90;99.90
11497;DHT22;5805;51.542;7.230;2023-01-10T16:08:54;9.90;99.90
11497;DHT22;5805;51.542;7.230;2023-01-10T16:11:23;10.00;99.90
11497;DHT22;5805;51.542;7.230;2023-01-10T16:13:50;9.90;99.90
11497;DHT22;5805;51.542;7.230;2023-01-10T16:16:17;10.00;99.90
11497;DHT22;5805;51.542;7.230;2023-01-10T16:18:44;10.00;99.90
11497;DHT22;5805;51.542;7.230;2023-01-10T16:21:10;10.00;99.90
11497;DHT22;5805;51.542;7.230;2023-01-10T16:23:37;9.90;99.90
11497;DHT22;5805;51.542;7.230;2023-01-10T16:26:08;9.90;99.90